sensor_id;sensor_type;location;lat;lon;timestamp;pressure;altitude;pressure_sealevel;temperature;humidity
85641;BME280;76065;47.182;27.506;2024-03-25T00:00:13;99327.50;;;5.02;92.15
85641;BME280;76065;47.182;27.506;2024-03-25T00:02:41;99341.38;;;5.04;91.57
85641;BME280;76065;47.182;27.506;2024-03-25T00:05:07;99336.88;;;4.99;91.89
85641;BME280;76065;47.182;27.506;2024-03-25T00:07:36;99287.13;;;4.80;92.62
85641;BME280;76065;47.182;27.506;2024-03-25T00:10:03;99293.47;;;4.89;93.46
85641;BME280;76065;47.182;27.506;2024-03-25T00:12:29;99316.59;;;4.98;92.84
85641;BME280;76065;47.182;27.506;2024-03-25T00:14:54;99295.75;;;5.05;92.01
85641;BME280;76065;47.182;27.506;2024-03-25T00:17:20;99295.22;;;5.03;91.24
85641;BME280;76065;47.182;27.506;2024-03-25T00:19:46;99281.31;;;5.06;91.40
85641;BME280;76065;47.182;27.506;2024-03-25T00:22:21;99280.94;;;5.18;90.88
85641;BME280;76065;47.182;27.506;2024-03-25T00:24:47;99255.34;;;5.17;91.00
85641;BME280;76065;47.182;27.506;2024-03-25T00:27:13;99255.38;;;5.12;91.55
85641;BME280;76065;47.182;27.506;2024-03-25T00:29:39;99247.13;;;5.08;92.10
85641;BME280;76065;47.182;27.506;2024-03-25T00:32:05;99218.44;;;4.95;92.82
85641;BME280;76065;47.182;27.506;2024-03-25T00:34:32;99212.41;;;4.85;93.50
85641;BME280;76065;47.182;27.506;2024-03-25T00:36:58;99200.03;;;4.94;92.64
85641;BME280;76065;47.182;27.506;2024-03-25T00:39:24;99210.22;;;4.87;92.62
85641;BME280;76065;47.182;27.506;2024-03-25T00:41:51;99218.22;;;4.87;93.23
85641;BME280;76065;47.182;27.506;2024-03-25T00:44:16;99217.56;;;5.05;91.40
85641;BME280;76065;47.182;27.506;2024-03-25T00:46:42;99226.06;;;5.07;91.80
85641;BME280;76065;47.182;27.506;2024-03-25T00:49:08;99217.03;;;5.03;91.62
85641;BME280;76065;47.182;27.506;2024-03-25T00:51:35;99218.59;;;5.09;91.37
85641;BME280;76065;47.182;27.506;2024-03-25T00:54:01;99214.34;;;5.03;91.44
85641;BME280;76065;47.182;27.506;2024-03-25T00:56:28;99214.97;;;4.95;92.01
85641;BME280;76065;47.182;27.506;2024-03-25T00:58:54;99212.94;;;4.82;92.60
85641;BME280;76065;47.182;27.506;2024-03-25T01:01:20;99216.72;;;4.76;93.11
85641;BME280;76065;47.182;27.506;2024-03-25T01:03:46;99203.44;;;4.70;93.39
85641;BME280;76065;47.182;27.506;2024-03-25T01:06:12;99203.97;;;4.72;93.19
85641;BME280;76065;47.182;27.506;2024-03-25T01:08:38;99197.28;;;4.70;92.84
85641;BME280;76065;47.182;27.506;2024-03-25T01:11:04;99191.53;;;4.58;93.10
85641;BME280;76065;47.182;27.506;2024-03-25T01:13:30;99204.50;;;4.69;93.38
85641;BME280;76065;47.182;27.506;2024-03-25T01:15:55;99196.75;;;4.73;93.12
85641;BME280;76065;47.182;27.506;2024-03-25T01:18:21;99182.22;;;4.55;93.33
85641;BME280;76065;47.182;27.506;2024-03-25T01:20:47;99188.38;;;4.51;93.53
85641;BME280;76065;47.182;27.506;2024-03-25T01:23:12;99193.47;;;4.52;94.11
85641;BME280;76065;47.182;27.506;2024-03-25T01:25:38;99167.94;;;4.41;94.16
85641;BME280;76065;47.182;27.506;2024-03-25T01:28:03;99176.91;;;4.55;93.07
85641;BME280;76065;47.182;27.506;2024-03-25T01:30:29;99176.09;;;4.55;93.33
85641;BME280;76065;47.182;27.506;2024-03-25T01:32:55;99164.13;;;4.52;92.69
85641;BME280;76065;47.182;27.506;2024-03-25T01:35:20;99185.09;;;4.64;92.70
85641;BME280;76065;47.182;27.506;2024-03-25T01:37:46;99185.31;;;4.67;93.01
85641;BME280;76065;47.182;27.506;2024-03-25T01:40:12;99182.94;;;4.66;92.57
85641;BME280;76065;47.182;27.506;2024-03-25T01:42:37;99167.47;;;4.68;92.38
85641;BME280;76065;47.182;27.506;2024-03-25T01:45:04;99166.03;;;4.81;92.23
85641;BME280;76065;47.182;27.506;2024-03-25T01:47:32;99161.72;;;4.85;92.21
85641;BME280;76065;47.182;27.506;2024-03-25T01:50:01;99156.38;;;4.85;91.78
85641;BME280;76065;47.182;27.506;2024-03-25T01:52:29;99149.94;;;4.86;91.13
85641;BME280;76065;47.182;27.506;2024-03-25T01:54:55;99136.91;;;4.84;91.02
85641;BME280;76065;47.182;27.506;2024-03-25T01:57:21;99154.66;;;4.94;90.77
85641;BME280;76065;47.182;27.506;2024-03-25T01:59:47;99145.56;;;5.00;91.01
85641;BME280;76065;47.182;27.506;2024-03-25T02:02:13;99146.66;;;4.94;91.02
85641;BME280;76065;47.182;27.506;2024-03-25T02:04:39;99141.91;;;4.91;90.99
85641;BME280;76065;47.182;27.506;2024-03-25T02:07:07;99134.19;;;4.89;91.62
85641;BME280;76065;47.182;27.506;2024-03-25T02:09:35;99105.78;;;4.75;91.82
85641;BME280;76065;47.182;27.506;2024-03-25T02:12:02;99113.97;;;4.83;91.45
85641;BME280;76065;47.182;27.506;2024-03-25T02:14:28;99114.53;;;4.80;91.66
85641;BME280;76065;47.182;27.506;2024-03-25T02:16:53;99121.56;;;4.71;92.30
85641;BME280;76065;47.182;27.506;2024-03-25T02:19:20;99117.59;;;4.68;91.97
85641;BME280;76065;47.182;27.506;2024-03-25T02:21:47;99120.06;;;4.60;92.47
85641;BME280;76065;47.182;27.506;2024-03-25T02:24:13;99114.44;;;4.61;92.77
85641;BME280;76065;47.182;27.506;2024-03-25T02:26:41;99118.47;;;4.59;93.07
85641;BME280;76065;47.182;27.506;2024-03-25T02:29:09;99096.16;;;4.50;93.20
85641;BME280;76065;47.182;27.506;2024-03-25T02:31:35;99114.22;;;4.58;93.80
85641;BME280;76065;47.182;27.506;2024-03-25T02:34:00;99118.19;;;4.60;93.36
85641;BME280;76065;47.182;27.506;2024-03-25T02:36:26;99124.84;;;4.63;93.65
85641;BME280;76065;47.182;27.506;2024-03-25T02:38:52;99108.16;;;4.52;94.06
85641;BME280;76065;47.182;27.506;2024-03-25T02:41:18;99122.31;;;4.48;94.38
85641;BME280;76065;47.182;27.506;2024-03-25T02:43:44;99111.72;;;4.38;94.66
85641;BME280;76065;47.182;27.506;2024-03-25T02:46:10;99109.91;;;4.33;94.62
85641;BME280;76065;47.182;27.506;2024-03-25T02:48:35;99119.47;;;4.34;94.97
85641;BME280;76065;47.182;27.506;2024-03-25T02:51:01;99115.75;;;4.35;95.06
85641;BME280;76065;47.182;27.506;2024-03-25T02:53:26;99115.28;;;4.28;94.94
85641;BME280;76065;47.182;27.506;2024-03-25T02:55:52;99100.91;;;4.24;95.01
85641;BME280;76065;47.182;27.506;2024-03-25T02:58:17;99100.34;;;4.27;94.94
85641;BME280;76065;47.182;27.506;2024-03-25T03:00:43;99102.50;;;4.25;95.12
85641;BME280;76065;47.182;27.506;2024-03-25T03:03:09;99106.16;;;4.34;94.99
85641;BME280;76065;47.182;27.506;2024-03-25T03:05:34;99102.50;;;4.25;95.16
85641;BME280;76065;47.182;27.506;2024-03-25T03:08:00;99105.41;;;4.29;95.04
85641;BME280;76065;47.182;27.506;2024-03-25T03:10:26;99108.88;;;4.29;95.09
85641;BME280;76065;47.182;27.506;2024-03-25T03:12:51;99109.16;;;4.28;95.85
85641;BME280;76065;47.182;27.506;2024-03-25T03:15:17;99108.88;;;4.29;95.41
85641;BME280;76065;47.182;27.506;2024-03-25T03:17:43;99105.69;;;4.27;95.62
85641;BME280;76065;47.182;27.506;2024-03-25T03:20:09;99114.50;;;4.22;96.29
85641;BME280;76065;47.182;27.506;2024-03-25T03:22:35;99102.25;;;4.21;96.40
85641;BME280;76065;47.182;27.506;2024-03-25T03:25:01;99102.53;;;4.20;95.84
85641;BME280;76065;47.182;27.506;2024-03-25T03:27:26;99110.44;;;4.30;95.42
85641;BME280;76065;47.182;27.506;2024-03-25T03:29:52;99108.91;;;4.24;95.53
85641;BME280;76065;47.182;27.506;2024-03-25T03:32:18;99108.94;;;4.19;95.91
85641;BME280;76065;47.182;27.506;2024-03-25T03:34:44;99113.94;;;4.25;95.53
85641;BME280;76065;47.182;27.506;2024-03-25T03:37:09;99114.75;;;4.26;95.17
85641;BME280;76065;47.182;27.506;2024-03-25T03:39:35;99112.06;;;4.26;94.82
85641;BME280;76065;47.182;27.506;2024-03-25T03:42:00;99107.03;;;4.24;94.67
85641;BME280;76065;47.182;27.506;2024-03-25T03:44:26;99114.75;;;4.26;94.60
85641;BME280;76065;47.182;27.506;2024-03-25T03:46:52;99105.19;;;4.25;94.76
85641;BME280;76065;47.182;27.506;2024-03-25T03:49:17;99102.50;;;4.25;95.28
85641;BME280;76065;47.182;27.506;2024-03-25T03:51:43;99102.50;;;4.25;94.59
85641;BME280;76065;47.182;27.506;2024-03-25T03:54:08;99107.53;;;4.27;94.32
85641;BME280;76065;47.182;27.506;2024-03-25T03:56:34;99112.00;;;4.36;94.67
85641;BME280;76065;47.182;27.506;2024-03-25T03:58:59;99110.16;;;4.37;94.12
85641;BME280;76065;47.182;27.506;2024-03-25T04:01:25;99105.53;;;4.42;94.10
85641;BME280;76065;47.182;27.506;2024-03-25T04:03:50;99098.09;;;4.44;93.79
85641;BME280;76065;47.182;27.506;2024-03-25T04:06:17;99107.69;;;4.45;93.80
85641;BME280;76065;47.182;27.506;2024-03-25T04:08:42;99105.09;;;4.35;94.27
85641;BME280;76065;47.182;27.506;2024-03-25T04:11:08;99105.03;;;4.40;94.67
85641;BME280;76065;47.182;27.506;2024-03-25T04:13:35;99116.78;;;4.39;94.67
85641;BME280;76065;47.182;27.506;2024-03-25T04:16:02;99104.00;;;4.36;94.07
85641;BME280;76065;47.182;27.506;2024-03-25T04:18:29;99110.38;;;4.40;93.94
85641;BME280;76065;47.182;27.506;2024-03-25T04:20:55;99118.34;;;4.45;94.23
85641;BME280;76065;47.182;27.506;2024-03-25T04:23:20;99108.22;;;4.42;93.88
85641;BME280;76065;47.182;27.506;2024-03-25T04:25:46;99109.78;;;4.48;93.50
85641;BME280;76065;47.182;27.506;2024-03-25T04:28:12;99115.16;;;4.43;92.95
85641;BME280;76065;47.182;27.506;2024-03-25T04:30:38;99132.50;;;4.41;93.69
85641;BME280;76065;47.182;27.506;2024-03-25T04:33:03;99123.69;;;4.45;93.51
85641;BME280;76065;47.182;27.506;2024-03-25T04:35:29;99121.84;;;4.41;93.06
85641;BME280;76065;47.182;27.506;2024-03-25T04:37:55;99126.06;;;4.42;93.25
85641;BME280;76065;47.182;27.506;2024-03-25T04:40:21;99130.56;;;4.46;93.14
85641;BME280;76065;47.182;27.506;2024-03-25T04:42:46;99135.88;;;4.51;92.60
85641;BME280;76065;47.182;27.506;2024-03-25T04:45:12;99142.19;;;4.60;92.35
85641;BME280;76065;47.182;27.506;2024-03-25T04:47:39;99129.38;;;4.62;92.48
85641;BME280;76065;47.182;27.506;2024-03-25T04:50:05;99142.19;;;4.60;91.83
85641;BME280;76065;47.182;27.506;2024-03-25T04:52:31;99143.75;;;4.61;91.71
85641;BME280;76065;47.182;27.506;2024-03-25T04:54:56;99145.00;;;4.74;91.08
85641;BME280;76065;47.182;27.506;2024-03-25T04:57:22;99153.34;;;4.67;91.30
85641;BME280;76065;47.182;27.506;2024-03-25T04:59:48;99155.63;;;4.79;91.25
85641;BME280;76065;47.182;27.506;2024-03-25T05:02:13;99154.78;;;4.84;91.27
85641;BME280;76065;47.182;27.506;2024-03-25T05:04:39;99182.91;;;5.00;90.26
85641;BME280;76065;47.182;27.506;2024-03-25T05:07:05;99164.19;;;5.05;89.25
85641;BME280;76065;47.182;27.506;2024-03-25T05:09:30;99174.56;;;5.06;89.06
85641;BME280;76065;47.182;27.506;2024-03-25T05:11:56;99177.53;;;5.05;90.12
85641;BME280;76065;47.182;27.506;2024-03-25T05:14:22;99172.47;;;5.03;89.96
85641;BME280;76065;47.182;27.506;2024-03-25T05:16:48;99183.94;;;5.04;89.73
85641;BME280;76065;47.182;27.506;2024-03-25T05:19:14;99181.03;;;5.00;89.72
85641;BME280;76065;47.182;27.506;2024-03-25T05:21:40;99177.38;;;4.91;90.05
85641;BME280;76065;47.182;27.506;2024-03-25T05:24:06;99173.47;;;4.84;90.70
85641;BME280;76065;47.182;27.506;2024-03-25T05:26:32;99187.84;;;4.83;90.88
85641;BME280;76065;47.182;27.506;2024-03-25T05:28:57;99185.44;;;4.86;90.93
85641;BME280;76065;47.182;27.506;2024-03-25T05:31:23;99180.66;;;4.83;91.12
85641;BME280;76065;47.182;27.506;2024-03-25T05:33:49;99166.03;;;4.81;91.08
85641;BME280;76065;47.182;27.506;2024-03-25T05:36:15;99176.34;;;4.87;91.50
85641;BME280;76065;47.182;27.506;2024-03-25T05:38:41;99170.78;;;4.84;91.73
85641;BME280;76065;47.182;27.506;2024-03-25T05:41:10;99179.28;;;4.86;91.66
85641;BME280;76065;47.182;27.506;2024-03-25T05:43:36;99180.00;;;4.96;91.51
85641;BME280;76065;47.182;27.506;2024-03-25T05:46:02;99165.34;;;4.94;91.31
85641;BME280;76065;47.182;27.506;2024-03-25T05:48:27;99172.00;;;4.96;90.95
85641;BME280;76065;47.182;27.506;2024-03-25T05:51:04;99166.94;;;4.95;91.20
85641;BME280;76065;47.182;27.506;2024-03-25T05:53:33;99166.31;;;5.03;90.52
85641;BME280;76065;47.182;27.506;2024-03-25T05:55:59;99169.78;;;5.03;90.72
85641;BME280;76065;47.182;27.506;2024-03-25T05:58:25;99159.34;;;5.07;90.58
85641;BME280;76065;47.182;27.506;2024-03-25T06:00:51;99159.16;;;4.98;90.41
85641;BME280;76065;47.182;27.506;2024-03-25T06:03:21;99157.28;;;4.99;90.06
85641;BME280;76065;47.182;27.506;2024-03-25T06:05:47;99163.63;;;5.08;90.10
85641;BME280;76065;47.182;27.506;2024-03-25T06:08:13;99161.97;;;5.12;89.50
85641;BME280;76065;47.182;27.506;2024-03-25T06:10:51;99165.00;;;5.05;89.95
85641;BME280;76065;47.182;27.506;2024-03-25T06:13:17;99174.28;;;5.08;89.18
85641;BME280;76065;47.182;27.506;2024-03-25T06:15:43;99173.03;;;5.00;89.97
85641;BME280;76065;47.182;27.506;2024-03-25T06:18:09;99172.28;;;4.95;90.02
85641;BME280;76065;47.182;27.506;2024-03-25T06:20:34;99169.34;;;4.96;89.82
85641;BME280;76065;47.182;27.506;2024-03-25T06:23:00;99191.75;;;4.95;90.89
85641;BME280;76065;47.182;27.506;2024-03-25T06:25:27;99185.63;;;4.95;90.66
85641;BME280;76065;47.182;27.506;2024-03-25T06:27:54;99180.59;;;4.93;89.78
85641;BME280;76065;47.182;27.506;2024-03-25T06:30:19;99180.84;;;4.92;89.42
85641;BME280;76065;47.182;27.506;2024-03-25T06:33:03;99170.75;;;4.89;89.69
85641;BME280;76065;47.182;27.506;2024-03-25T06:35:48;99190.66;;;5.01;88.69
85641;BME280;76065;47.182;27.506;2024-03-25T06:38:13;99179.66;;;5.03;89.20
85641;BME280;76065;47.182;27.506;2024-03-25T06:40:39;99179.41;;;5.04;88.89
85641;BME280;76065;47.182;27.506;2024-03-25T06:43:05;99168.72;;;5.04;88.93
85641;BME280;76065;47.182;27.506;2024-03-25T06:45:31;99173.94;;;5.14;88.28
85641;BME280;76065;47.182;27.506;2024-03-25T06:47:57;99173.63;;;5.21;88.41
85641;BME280;76065;47.182;27.506;2024-03-25T06:50:23;99174.13;;;5.23;88.85
85641;BME280;76065;47.182;27.506;2024-03-25T06:52:49;99171.97;;;5.01;89.39
85641;BME280;76065;47.182;27.506;2024-03-25T06:55:15;99182.19;;;5.18;88.80
85641;BME280;76065;47.182;27.506;2024-03-25T06:57:41;99183.13;;;5.32;88.72
85641;BME280;76065;47.182;27.506;2024-03-25T07:00:07;99180.91;;;5.39;87.97
85641;BME280;76065;47.182;27.506;2024-03-25T07:02:39;99188.28;;;5.47;87.51
85641;BME280;76065;47.182;27.506;2024-03-25T07:05:05;99193.03;;;5.50;87.68
85641;BME280;76065;47.182;27.506;2024-03-25T07:07:30;99194.63;;;5.51;87.42
85641;BME280;76065;47.182;27.506;2024-03-25T07:09:56;99193.53;;;5.57;87.54
85641;BME280;76065;47.182;27.506;2024-03-25T07:12:22;99204.97;;;5.58;87.51
85641;BME280;76065;47.182;27.506;2024-03-25T07:14:48;99181.00;;;5.53;85.97
85641;BME280;76065;47.182;27.506;2024-03-25T07:17:13;99200.91;;;5.65;86.01
85641;BME280;76065;47.182;27.506;2024-03-25T07:19:39;99206.25;;;5.65;85.58
85641;BME280;76065;47.182;27.506;2024-03-25T07:22:04;99193.66;;;5.66;85.74
85641;BME280;76065;47.182;27.506;2024-03-25T07:24:30;99191.34;;;5.59;86.02
85641;BME280;76065;47.182;27.506;2024-03-25T07:26:56;99202.41;;;5.72;85.43
85641;BME280;76065;47.182;27.506;2024-03-25T07:29:21;99196.19;;;5.57;85.52
85641;BME280;76065;47.182;27.506;2024-03-25T07:31:47;99202.94;;;5.74;85.86
85641;BME280;76065;47.182;27.506;2024-03-25T07:34:12;99200.41;;;5.82;85.67
85641;BME280;76065;47.182;27.506;2024-03-25T07:36:38;99193.72;;;5.85;86.13
85641;BME280;76065;47.182;27.506;2024-03-25T07:39:04;99183.56;;;5.87;85.77
85641;BME280;76065;47.182;27.506;2024-03-25T07:41:36;99206.63;;;6.01;85.22
85641;BME280;76065;47.182;27.506;2024-03-25T07:44:02;99191.72;;;6.14;84.50
85641;BME280;76065;47.182;27.506;2024-03-25T07:46:27;99198.81;;;6.24;83.80
85641;BME280;76065;47.182;27.506;2024-03-25T07:48:53;99189.00;;;6.19;83.24
85641;BME280;76065;47.182;27.506;2024-03-25T07:51:19;99202.22;;;6.48;83.36
85641;BME280;76065;47.182;27.506;2024-03-25T07:53:44;99186.78;;;6.58;82.42
85641;BME280;76065;47.182;27.506;2024-03-25T07:56:10;99186.03;;;6.72;81.48
85641;BME280;76065;47.182;27.506;2024-03-25T07:58:35;99187.97;;;6.85;80.64
85641;BME280;76065;47.182;27.506;2024-03-25T08:01:01;99182.88;;;7.02;80.57
85641;BME280;76065;47.182;27.506;2024-03-25T08:03:27;99175.41;;;6.99;80.18
85641;BME280;76065;47.182;27.506;2024-03-25T08:05:52;99180.00;;;7.12;80.08
85641;BME280;76065;47.182;27.506;2024-03-25T08:08:18;99167.91;;;7.15;79.63
85641;BME280;76065;47.182;27.506;2024-03-25T08:10:43;99164.75;;;7.40;77.82
85641;BME280;76065;47.182;27.506;2024-03-25T08:13:10;99173.19;;;7.61;78.33
85641;BME280;76065;47.182;27.506;2024-03-25T08:15:36;99176.72;;;7.83;78.64
85641;BME280;76065;47.182;27.506;2024-03-25T08:18:02;99164.72;;;7.67;76.30
85641;BME280;76065;47.182;27.506;2024-03-25T08:20:28;99168.06;;;8.00;76.09
85641;BME280;76065;47.182;27.506;2024-03-25T08:22:54;99175.38;;;8.08;75.24
85641;BME280;76065;47.182;27.506;2024-03-25T08:25:19;99183.53;;;8.17;75.02
85641;BME280;76065;47.182;27.506;2024-03-25T08:27:45;99182.63;;;8.21;73.76
85641;BME280;76065;47.182;27.506;2024-03-25T08:30:11;99182.09;;;8.19;74.15
85641;BME280;76065;47.182;27.506;2024-03-25T08:32:36;99169.13;;;8.49;74.05
85641;BME280;76065;47.182;27.506;2024-03-25T08:35:02;99179.19;;;8.65;74.96
85641;BME280;76065;47.182;27.506;2024-03-25T08:37:28;99178.88;;;8.67;72.63
85641;BME280;76065;47.182;27.506;2024-03-25T08:39:53;99178.22;;;8.61;71.53
85641;BME280;76065;47.182;27.506;2024-03-25T08:42:19;99182.66;;;9.10;70.13
85641;BME280;76065;47.182;27.506;2024-03-25T08:44:47;99188.59;;;8.76;70.24
85641;BME280;76065;47.182;27.506;2024-03-25T08:47:12;99182.19;;;9.17;72.53
85641;BME280;76065;47.182;27.506;2024-03-25T08:49:38;99192.06;;;9.30;70.38
85641;BME280;76065;47.182;27.506;2024-03-25T08:52:03;99196.94;;;9.28;69.69
85641;BME280;76065;47.182;27.506;2024-03-25T08:54:29;99202.00;;;9.29;69.41
85641;BME280;76065;47.182;27.506;2024-03-25T08:56:55;99157.00;;;9.04;69.01
85641;BME280;76065;47.182;27.506;2024-03-25T08:59:20;99162.13;;;9.23;67.48
85641;BME280;76065;47.182;27.506;2024-03-25T09:01:46;99188.03;;;8.43;68.88
85641;BME280;76065;47.182;27.506;2024-03-25T09:04:11;99206.50;;;8.45;72.89
85641;BME280;76065;47.182;27.506;2024-03-25T09:06:37;99183.53;;;8.53;72.01
85641;BME280;76065;47.182;27.506;2024-03-25T09:09:03;99164.97;;;8.65;72.13
85641;BME280;76065;47.182;27.506;2024-03-25T09:11:47;99199.16;;;8.73;70.83
85641;BME280;76065;47.182;27.506;2024-03-25T09:14:13;99205.38;;;8.82;69.71
85641;BME280;76065;47.182;27.506;2024-03-25T09:16:38;99194.06;;;8.71;68.96
85641;BME280;76065;47.182;27.506;2024-03-25T09:19:04;99193.97;;;8.76;70.02
85641;BME280;76065;47.182;27.506;2024-03-25T09:21:29;99208.13;;;9.21;68.63
85641;BME280;76065;47.182;27.506;2024-03-25T09:23:55;99205.13;;;9.54;67.48
85641;BME280;76065;47.182;27.506;2024-03-25T09:26:23;99205.53;;;9.86;65.16
85641;BME280;76065;47.182;27.506;2024-03-25T09:28:49;99212.47;;;10.27;64.77
85641;BME280;76065;47.182;27.506;2024-03-25T09:31:14;99194.88;;;10.29;64.32
85641;BME280;76065;47.182;27.506;2024-03-25T09:33:40;99212.44;;;10.87;62.27
85641;BME280;76065;47.182;27.506;2024-03-25T09:36:06;99214.00;;;11.52;60.93
85641;BME280;76065;47.182;27.506;2024-03-25T09:38:31;99207.31;;;11.11;60.58
85641;BME280;76065;47.182;27.506;2024-03-25T09:40:57;99201.16;;;11.02;62.11
85641;BME280;76065;47.182;27.506;2024-03-25T09:43:27;99214.06;;;11.81;56.72
85641;BME280;76065;47.182;27.506;2024-03-25T09:45:54;99204.72;;;12.49;57.54
85641;BME280;76065;47.182;27.506;2024-03-25T09:48:21;99206.44;;;11.83;56.62
85641;BME280;76065;47.182;27.506;2024-03-25T09:50:47;99206.81;;;11.64;58.05
85641;BME280;76065;47.182;27.506;2024-03-25T09:53:14;99200.31;;;11.65;54.97
85641;BME280;76065;47.182;27.506;2024-03-25T09:55:40;99199.28;;;11.87;55.25
85641;BME280;76065;47.182;27.506;2024-03-25T09:58:05;99199.63;;;12.06;54.98
85641;BME280;76065;47.182;27.506;2024-03-25T10:00:31;99196.22;;;11.13;55.62
85641;BME280;76065;47.182;27.506;2024-03-25T10:02:57;99186.53;;;11.58;56.07
85641;BME280;76065;47.182;27.506;2024-03-25T10:05:22;99187.03;;;11.14;56.85
85641;BME280;76065;47.182;27.506;2024-03-25T10:07:49;99195.63;;;10.99;56.03
85641;BME280;76065;47.182;27.506;2024-03-25T10:10:19;99191.09;;;11.28;55.11
85641;BME280;76065;47.182;27.506;2024-03-25T10:12:45;99190.69;;;11.09;55.44
85641;BME280;76065;47.182;27.506;2024-03-25T10:15:20;99169.63;;;11.03;59.06
85641;BME280;76065;47.182;27.506;2024-03-25T10:17:49;99181.66;;;10.97;56.19
85641;BME280;76065;47.182;27.506;2024-03-25T10:20:15;99175.59;;;11.17;55.45
85641;BME280;76065;47.182;27.506;2024-03-25T10:22:44;99171.09;;;11.38;55.75
85641;BME280;76065;47.182;27.506;2024-03-25T10:25:29;99173.72;;;11.00;57.89
85641;BME280;76065;47.182;27.506;2024-03-25T10:27:59;99180.19;;;11.16;57.37
85641;BME280;76065;47.182;27.506;2024-03-25T10:30:26;99175.16;;;11.44;55.69
85641;BME280;76065;47.182;27.506;2024-03-25T10:33:05;99162.53;;;11.27;57.51
85641;BME280;76065;47.182;27.506;2024-03-25T10:35:34;99165.47;;;11.14;59.29
85641;BME280;76065;47.182;27.506;2024-03-25T10:38:02;99168.06;;;10.85;58.73
85641;BME280;76065;47.182;27.506;2024-03-25T10:40:30;99168.25;;;11.35;59.71
85641;BME280;76065;47.182;27.506;2024-03-25T10:45:33;99161.91;;;11.31;55.39
85641;BME280;76065;47.182;27.506;2024-03-25T10:48:03;99162.22;;;11.29;56.43
85641;BME280;76065;47.182;27.506;2024-03-25T10:50:32;99157.94;;;11.28;55.99
85641;BME280;76065;47.182;27.506;2024-03-25T10:53:00;99150.72;;;11.49;57.79
85641;BME280;76065;47.182;27.506;2024-03-25T10:55:28;99150.94;;;11.36;51.87
85641;BME280;76065;47.182;27.506;2024-03-25T10:57:55;99152.66;;;11.11;54.68
85641;BME280;76065;47.182;27.506;2024-03-25T11:00:22;99147.38;;;11.23;53.87
85641;BME280;76065;47.182;27.506;2024-03-25T11:02:48;99115.09;;;10.42;53.86
85641;BME280;76065;47.182;27.506;2024-03-25T11:05:15;99145.31;;;10.39;55.50
85641;BME280;76065;47.182;27.506;2024-03-25T11:07:41;99142.91;;;10.72;54.82
85641;BME280;76065;47.182;27.506;2024-03-25T11:10:08;99134.66;;;10.77;55.33
85641;BME280;76065;47.182;27.506;2024-03-25T11:12:41;99136.53;;;11.32;53.27
85641;BME280;76065;47.182;27.506;2024-03-25T11:15:08;99135.72;;;11.98;51.71
85641;BME280;76065;47.182;27.506;2024-03-25T11:17:34;99133.47;;;12.21;50.62
85641;BME280;76065;47.182;27.506;2024-03-25T11:20:10;99125.69;;;12.40;48.87
85641;BME280;76065;47.182;27.506;2024-03-25T11:22:50;99125.56;;;11.37;51.91
85641;BME280;76065;47.182;27.506;2024-03-25T11:25:17;99112.81;;;10.70;52.32
85641;BME280;76065;47.182;27.506;2024-03-25T11:27:44;99074.34;;;10.61;51.85
85641;BME280;76065;47.182;27.506;2024-03-25T11:30:11;99115.94;;;10.89;53.17
85641;BME280;76065;47.182;27.506;2024-03-25T11:33:03;99113.78;;;11.50;50.24
85641;BME280;76065;47.182;27.506;2024-03-25T11:35:30;99118.19;;;11.54;49.15
85641;BME280;76065;47.182;27.506;2024-03-25T11:37:55;99116.16;;;12.01;48.70
85641;BME280;76065;47.182;27.506;2024-03-25T11:40:21;99096.22;;;11.73;48.55
85641;BME280;76065;47.182;27.506;2024-03-25T11:42:47;99110.56;;;12.06;48.27
85641;BME280;76065;47.182;27.506;2024-03-25T11:47:45;99106.28;;;11.55;49.59
85641;BME280;76065;47.182;27.506;2024-03-25T11:50:16;99104.94;;;11.70;51.07
85641;BME280;76065;47.182;27.506;2024-03-25T11:52:42;99092.72;;;11.64;47.96
85641;BME280;76065;47.182;27.506;2024-03-25T11:55:08;99103.59;;;11.85;47.83
85641;BME280;76065;47.182;27.506;2024-03-25T11:57:36;99100.19;;;11.67;48.62
85641;BME280;76065;47.182;27.506;2024-03-25T12:00:03;99095.25;;;11.69;51.04
85641;BME280;76065;47.182;27.506;2024-03-25T12:02:32;99080.03;;;11.73;47.38
85641;BME280;76065;47.182;27.506;2024-03-25T12:04:58;99092.47;;;11.57;47.41
85641;BME280;76065;47.182;27.506;2024-03-25T12:07:24;99088.00;;;11.32;47.41
85641;BME280;76065;47.182;27.506;2024-03-25T12:09:50;99091.00;;;11.39;49.29
85641;BME280;76065;47.182;27.506;2024-03-25T12:12:34;99090.81;;;11.14;49.25
85641;BME280;76065;47.182;27.506;2024-03-25T12:15:05;99092.31;;;10.95;48.82
85641;BME280;76065;47.182;27.506;2024-03-25T12:17:33;99079.72;;;10.69;50.06
85641;BME280;76065;47.182;27.506;2024-03-25T12:20:06;99072.63;;;10.48;51.40
85641;BME280;76065;47.182;27.506;2024-03-25T12:22:37;99079.28;;;10.59;49.45
85641;BME280;76065;47.182;27.506;2024-03-25T12:25:04;99077.53;;;10.54;49.80
85641;BME280;76065;47.182;27.506;2024-03-25T12:27:35;99070.81;;;10.77;49.90
85641;BME280;76065;47.182;27.506;2024-03-25T12:30:04;99082.91;;;11.01;49.48
85641;BME280;76065;47.182;27.506;2024-03-25T12:32:40;99072.38;;;11.16;48.78
85641;BME280;76065;47.182;27.506;2024-03-25T12:35:11;99080.63;;;10.82;51.00
85641;BME280;76065;47.182;27.506;2024-03-25T12:37:40;99078.41;;;10.75;50.70
85641;BME280;76065;47.182;27.506;2024-03-25T12:40:07;99087.13;;;10.81;52.30
85641;BME280;76065;47.182;27.506;2024-03-25T12:42:34;99069.72;;;10.78;48.96
85641;BME280;76065;47.182;27.506;2024-03-25T12:45:00;99077.28;;;10.85;50.61
85641;BME280;76065;47.182;27.506;2024-03-25T12:47:25;99070.97;;;10.81;49.61
85641;BME280;76065;47.182;27.506;2024-03-25T12:49:51;99076.47;;;10.85;49.55
85641;BME280;76065;47.182;27.506;2024-03-25T12:52:17;99075.97;;;11.29;51.43
85641;BME280;76065;47.182;27.506;2024-03-25T12:54:43;99079.50;;;11.50;48.45
85641;BME280;76065;47.182;27.506;2024-03-25T12:57:08;99077.25;;;11.52;48.17
85641;BME280;76065;47.182;27.506;2024-03-25T12:59:35;99092.59;;;11.60;49.77